Time;durP1;ratioP1;P1;durP2;ratioP2;P2;SDS_P1;SDS_P2;PMS_P1;PMS_P2;Temp;Humidity;BMP_temperature;BMP_pressure;BME280_temperature;BME280_humidity;BME280_pressure;Samples;Min_cycle;Max_cycle;Signal;HPM_P1;HPM_P2
2023/06/24 00:00:30;;;;;;;13.57;9.15;;;;;;;;;;20998789;28;20432;-66
2023/06/24 00:10:32;;;;;;;7.80;5.50;;;;;;;;;;20998442;28;20499;-68
2023/06/24 00:20:33;;;;;;;11.60;5.60;;;;;;;;;;20997263;28;20546;-66
2023/06/24 00:30:34;;;;;;;8.63;5.15;;;;;;;;;;20995891;28;20060;-67
2023/06/24 00:40:35;;;;;;;8.25;4.70;;;;;;;;;;20996984;28;20045;-67
2023/06/24 00:50:37;;;;;;;6.35;4.90;;;;;;;;;;20996609;28;20045;-66
2023/06/24 01:00:38;;;;;;;6.15;4.82;;;;;;;;;;20996121;28;20474;-66
2023/06/24 01:10:39;;;;;;;8.77;5.60;;;;;;;;;;20994707;28;20056;-66
2023/06/24 01:20:57;;;;;;;10.55;6.60;;;;;;;;;;20994070;28;20056;-66
2023/06/24 01:31:18;;;;;;;9.52;5.35;;;;;;;;;;21005344;28;20059;-66
2023/06/24 01:41:22;;;;;;;7.85;5.18;;;;;;;;;;21010012;28;20094;-66
2023/06/24 01:51:24;;;;;;;9.95;5.00;;;;;;;;;;21007671;28;20102;-66
2023/06/24 02:01:26;;;;;;;11.10;6.40;;;;;;;;;;21008434;28;20048;-66
2023/06/24 02:11:28;;;;;;;8.50;5.05;;;;;;;;;;21007936;28;20041;-66
2023/06/24 02:21:30;;;;;;;8.55;5.97;;;;;;;;;;21005652;28;20045;-66
2023/06/24 02:31:31;;;;;;;7.78;5.43;;;;;;;;;;21005969;28;20084;-65
2023/06/24 02:41:32;;;;;;;8.25;5.03;;;;;;;;;;21005068;28;20123;-64
2023/06/24 02:51:34;;;;;;;6.68;4.78;;;;;;;;;;21004662;28;20123;-66
2023/06/24 03:01:38;;;;;;;6.25;4.40;;;;;;;;;;21003747;28;20036;-66
2023/06/24 03:11:42;;;;;;;5.75;4.30;;;;;;;;;;21002839;28;20052;-66
2023/06/24 03:21:43;;;;;;;6.53;4.32;;;;;;;;;;21000706;28;20044;-66
2023/06/24 03:31:45;;;;;;;5.22;3.80;;;;;;;;;;20999586;28;20052;-67
2023/06/24 03:41:46;;;;;;;5.97;4.15;;;;;;;;;;21000561;28;20124;-67
2023/06/24 03:51:47;;;;;;;5.40;3.95;;;;;;;;;;20999159;28;20511;-66
2023/06/24 04:01:51;;;;;;;6.93;4.22;;;;;;;;;;20999252;28;20527;-67
2023/06/24 04:11:52;;;;;;;6.05;4.10;;;;;;;;;;20998699;28;20076;-66
2023/06/24 04:21:53;;;;;;;7.18;3.97;;;;;;;;;;20998069;28;20083;-67
2023/06/24 04:31:54;;;;;;;6.00;4.13;;;;;;;;;;20997208;28;20127;-66
2023/06/24 04:41:55;;;;;;;7.25;4.78;;;;;;;;;;20997126;28;20074;-66
2023/06/24 04:51:56;;;;;;;7.10;4.20;;;;;;;;;;20996857;28;20166;-66
2023/06/24 05:01:58;;;;;;;7.55;4.82;;;;;;;;;;21002771;28;20052;-66
2023/06/24 05:11:59;;;;;;;6.68;4.50;;;;;;;;;;21011349;28;20082;-65
2023/06/24 05:22:00;;;;;;;5.50;4.22;;;;;;;;;;21010252;28;20102;-66
2023/06/24 05:32:03;;;;;;;9.88;5.00;;;;;;;;;;21009564;28;20048;-65
2023/06/24 05:42:04;;;;;;;7.43;4.57;;;;;;;;;;21010394;28;20394;-66
2023/06/24 05:52:06;;;;;;;5.95;4.22;;;;;;;;;;21009305;28;20493;-65
2023/06/24 06:02:07;;;;;;;9.05;4.03;;;;;;;;;;21008492;28;20058;-65
2023/06/24 06:12:08;;;;;;;9.73;4.85;;;;;;;;;;21007201;28;20048;-66
2023/06/24 06:22:10;;;;;;;6.50;4.65;;;;;;;;;;21007178;28;20486;-67
2023/06/24 06:32:11;;;;;;;7.38;3.95;;;;;;;;;;21005954;28;20519;-66
2023/06/24 06:42:14;;;;;;;6.60;3.78;;;;;;;;;;21004081;28;20052;-66
2023/06/24 06:52:15;;;;;;;6.82;4.05;;;;;;;;;;21003312;28;20055;-69
2023/06/24 07:02:16;;;;;;;4.97;3.97;;;;;;;;;;21002464;28;20040;-70
2023/06/24 07:12:18;;;;;;;5.38;3.45;;;;;;;;;;21003088;28;20044;-70
2023/06/24 07:22:19;;;;;;;5.43;3.78;;;;;;;;;;21001148;28;20479;-70
2023/06/24 07:32:20;;;;;;;4.00;3.17;;;;;;;;;;20999781;28;20045;-70
2023/06/24 07:42:21;;;;;;;4.82;3.35;;;;;;;;;;21000361;28;20045;-70
2023/06/24 07:52:22;;;;;;;7.20;3.92;;;;;;;;;;20999630;28;20051;-70
2023/06/24 08:02:24;;;;;;;5.43;3.88;;;;;;;;;;20998588;28;20047;-70
2023/06/24 08:12:25;;;;;;;6.55;3.60;;;;;;;;;;20998058;28;20045;-70
2023/06/24 08:22:26;;;;;;;5.10;3.03;;;;;;;;;;20996260;28;20049;-70
2023/06/24 08:32:28;;;;;;;4.72;3.30;;;;;;;;;;20997099;28;20083;-69
2023/06/24 08:42:29;;;;;;;4.55;2.70;;;;;;;;;;20996552;28;20044;-67
2023/06/24 08:52:31;;;;;;;5.57;3.20;;;;;;;;;;20996218;28;20061;-69
2023/06/24 09:02:32;;;;;;;8.13;3.10;;;;;;;;;;20996106;28;20044;-68
2023/06/24 09:12:34;;;;;;;7.07;3.17;;;;;;;;;;20995691;28;20162;-69
2023/06/24 09:22:35;;;;;;;5.63;3.10;;;;;;;;;;20994453;28;20083;-70
2023/06/24 09:32:36;;;;;;;5.82;2.83;;;;;;;;;;20994491;28;20040;-70
2023/06/24 09:42:37;;;;;;;5.85;3.00;;;;;;;;;;20994514;28;20047;-69
2023/06/24 09:52:39;;;;;;;6.22;3.28;;;;;;;;;;21004906;28;20044;-66
2023/06/24 10:02:40;;;;;;;4.57;2.80;;;;;;;;;;21007727;28;20047;-70
2023/06/24 10:12:41;;;;;;;6.18;3.13;;;;;;;;;;21007062;28;20079;-69
2023/06/24 10:22:46;;;;;;;54.92;11.25;;;;;;;;;;21006315;28;20127;-69
2023/06/24 10:32:51;;;;;;;6.15;3.28;;;;;;;;;;21004665;28;20095;-68
2023/06/24 10:42:53;;;;;;;4.40;3.20;;;;;;;;;;21004850;28;20044;-68
2023/06/24 10:52:55;;;;;;;5.85;3.28;;;;;;;;;;21004565;28;20169;-68
2023/06/24 11:02:57;;;;;;;6.53;3.30;;;;;;;;;;21001715;28;20057;-69
2023/06/24 11:12:58;;;;;;;5.47;4.38;;;;;;;;;;21002361;28;20040;-68
2023/06/24 11:22:59;;;;;;;4.63;3.10;;;;;;;;;;21001682;28;20047;-62
2023/06/24 11:33:02;;;;;;;5.10;3.22;;;;;;;;;;21000409;28;20132;-68
2023/06/24 11:43:04;;;;;;;6.45;3.38;;;;;;;;;;21000247;28;20452;-68
2023/06/24 11:53:05;;;;;;;4.35;3.30;;;;;;;;;;20999070;28;20166;-68
2023/06/24 12:03:06;;;;;;;6.75;3.50;;;;;;;;;;20996714;28;20178;-69
2023/06/24 12:13:11;;;;;;;5.72;3.42;;;;;;;;;;20998203;28;20041;-69
2023/06/24 12:23:12;;;;;;;5.78;3.85;;;;;;;;;;20996246;28;20048;-68
2023/06/24 12:33:13;;;;;;;6.25;3.30;;;;;;;;;;20994263;28;20048;-69
2023/06/24 12:43:14;;;;;;;5.28;3.65;;;;;;;;;;20994468;28;20050;-68
2023/06/24 12:53:15;;;;;;;4.63;3.55;;;;;;;;;;20995413;28;20044;-67
2023/06/24 13:03:17;;;;;;;6.10;3.78;;;;;;;;;;20995351;28;20493;-68
2023/06/24 13:13:18;;;;;;;5.88;3.90;;;;;;;;;;20994921;28;20512;-68
2023/06/24 13:23:19;;;;;;;5.65;3.47;;;;;;;;;;21000258;28;20472;-67
2023/06/24 13:33:20;;;;;;;8.13;4.55;;;;;;;;;;21008842;28;20064;-68
2023/06/24 13:43:21;;;;;;;4.72;4.00;;;;;;;;;;21008732;28;20053;-68
2023/06/24 13:53:22;;;;;;;6.68;4.47;;;;;;;;;;21009383;28;20043;-68
2023/06/24 14:03:23;;;;;;;5.95;4.53;;;;;;;;;;21008582;28;20047;-68
2023/06/24 14:13:25;;;;;;;6.18;4.68;;;;;;;;;;21007692;28;20510;-68
2023/06/24 14:23:26;;;;;;;5.70;3.97;;;;;;;;;;21006580;28;20061;-67
2023/06/24 14:33:27;;;;;;;7.85;4.72;;;;;;;;;;21005073;28;20055;-68
2023/06/24 14:43:28;;;;;;;6.65;4.70;;;;;;;;;;21004238;28;20051;-67
2023/06/24 14:53:29;;;;;;;6.35;4.93;;;;;;;;;;21003731;28;20040;-67
2023/06/24 15:03:30;;;;;;;7.53;4.82;;;;;;;;;;21001718;28;20052;-68
2023/06/24 15:13:32;;;;;;;7.50;5.38;;;;;;;;;;21002410;28;20098;-68
2023/06/24 15:23:33;;;;;;;5.53;4.50;;;;;;;;;;21000150;28;20045;-68
2023/06/24 15:33:34;;;;;;;7.25;4.53;;;;;;;;;;20999177;28;20044;-67
2023/06/24 15:43:35;;;;;;;8.07;5.18;;;;;;;;;;20998431;28;20037;-69
2023/06/24 15:53:36;;;;;;;8.23;5.03;;;;;;;;;;20999230;28;20445;-68
2023/06/24 16:03:38;;;;;;;9.80;5.25;;;;;;;;;;20998404;28;20490;-68
2023/06/24 16:13:41;;;;;;;7.30;4.72;;;;;;;;;;20997321;28;20143;-68
2023/06/24 16:23:42;;;;;;;8.88;5.35;;;;;;;;;;20996322;28;20044;-63
2023/06/24 16:33:43;;;;;;;8.90;7.38;;;;;;;;;;20996308;28;20074;-58
2023/06/24 16:43:48;;;;;;;7.30;5.00;;;;;;;;;;20993094;28;20051;-61
2023/06/24 16:53:49;;;;;;;7.97;5.10;;;;;;;;;;20995887;28;20045;-70
2023/06/24 17:03:50;;;;;;;7.72;5.72;;;;;;;;;;21012030;28;20048;-70
2023/06/24 17:13:51;;;;;;;6.72;5.00;;;;;;;;;;21012311;28;20047;-70
2023/06/24 17:23:52;;;;;;;7.30;5.30;;;;;;;;;;21010128;28;20093;-65
2023/06/24 17:33:53;;;;;;;7.07;5.20;;;;;;;;;;21009112;28;20060;-73
2023/06/24 17:43:54;;;;;;;6.82;5.05;;;;;;;;;;21008863;28;20123;-72
2023/06/24 17:53:55;;;;;;;7.72;4.78;;;;;;;;;;21009253;28;20487;-73
2023/06/24 18:03:57;;;;;;;5.95;4.60;;;;;;;;;;21007337;28;20084;-73
2023/06/24 18:13:58;;;;;;;7.60;5.97;;;;;;;;;;21006629;28;20060;-73
2023/06/24 18:23:59;;;;;;;6.55;5.18;;;;;;;;;;21006516;28;20068;-73
2023/06/24 18:34:00;;;;;;;5.68;4.60;;;;;;;;;;21006477;28;20441;-72
2023/06/24 18:44:02;;;;;;;7.90;5.13;;;;;;;;;;21004308;28;20052;-73
2023/06/24 18:54:04;;;;;;;7.70;5.20;;;;;;;;;;21003759;28;20048;-72
2023/06/24 19:04:05;;;;;;;8.38;6.15;;;;;;;;;;21002526;28;20047;-73
2023/06/24 19:14:06;;;;;;;7.78;5.43;;;;;;;;;;21002516;28;20110;-72
2023/06/24 19:24:07;;;;;;;8.15;6.00;;;;;;;;;;21002186;28;20049;-72
2023/06/24 19:34:08;;;;;;;9.68;6.05;;;;;;;;;;20998295;28;20580;-71
2023/06/24 19:44:10;;;;;;;10.93;5.97;;;;;;;;;;20996912;28;20130;-72
2023/06/24 19:54:11;;;;;;;6.68;5.03;;;;;;;;;;20992295;28;20123;-71
2023/06/24 20:04:12;;;;;;;11.02;6.72;;;;;;;;;;20990133;28;20044;-71
2023/06/24 20:14:13;;;;;;;9.57;5.38;;;;;;;;;;20990782;28;20490;-73
2023/06/24 20:24:14;;;;;;;7.70;6.55;;;;;;;;;;20998091;28;20508;-73
2023/06/24 20:34:15;;;;;;;12.95;7.82;;;;;;;;;;20996336;28;20048;-72
2023/06/24 20:44:17;;;;;;;8.63;6.07;;;;;;;;;;20997052;28;20072;-72
2023/06/24 20:54:18;;;;;;;12.63;7.88;;;;;;;;;;20996307;28;20091;-72
2023/06/24 21:04:19;;;;;;;12.32;8.10;;;;;;;;;;20995198;28;20045;-72
2023/06/24 21:14:20;;;;;;;11.93;8.77;;;;;;;;;;20994034;28;20041;-72
2023/06/24 21:24:21;;;;;;;16.38;9.00;;;;;;;;;;20994167;28;20052;-73
2023/06/24 21:34:22;;;;;;;11.00;7.13;;;;;;;;;;20993037;28;20060;-73
2023/06/24 21:44:23;;;;;;;13.80;7.82;;;;;;;;;;20998996;28;20044;-72
2023/06/24 21:54:25;;;;;;;10.52;7.22;;;;;;;;;;20998726;28;20516;-70
2023/06/24 22:04:26;;;;;;;15.32;9.27;;;;;;;;;;21007235;28;20052;-71
2023/06/24 22:14:27;;;;;;;13.38;7.78;;;;;;;;;;21007171;28;20106;-71
2023/06/24 22:24:28;;;;;;;15.60;9.23;;;;;;;;;;21006384;28;20044;-71
2023/06/24 22:34:29;;;;;;;11.13;8.13;;;;;;;;;;21005061;28;20049;-70
2023/06/24 22:44:30;;;;;;;13.98;7.93;;;;;;;;;;21004693;28;20053;-72
2023/06/24 22:54:31;;;;;;;11.85;8.13;;;;;;;;;;21004678;28;20044;-71
2023/06/24 23:04:32;;;;;;;46.80;33.63;;;;;;;;;;21002879;28;20044;-70
2023/06/24 23:14:34;;;;;;;22.33;15.10;;;;;;;;;;21003429;28;20541;-71
2023/06/24 23:24:35;;;;;;;40.60;24.08;;;;;;;;;;21002555;28;20056;-70
2023/06/24 23:34:37;;;;;;;31.80;21.50;;;;;;;;;;21000419;28;20075;-70
2023/06/24 23:44:38;;;;;;;17.30;10.98;;;;;;;;;;20999672;28;20048;-71
2023/06/24 23:54:39;;;;;;;19.52;13.68;;;;;;;;;;20998934;28;20044;-70
